KECG/ECG METAR and TAF weather

Enter ICAO airport designator
Station Type Date Time Source
KECG METAR 2019/06/26 21:54 UTC NOAA

KECG 262154Z 10005KT 10SM CLR 30/16 A3008 RMK AO2 SLP184 T03000156


Station Type Date Time Source
KECG Decoded METAR 2019/06/26 21:54 UTC NOAA

ELIZABETH CITY C/G REGN AIRPORT , NC, United States (KECG) 36-15N 076-10W 11M
Jun 26, 2019 - 05:54 PM EDT / 2019.06.26 2154 UTC
Wind: from the E (100 degrees) at 6 MPH (5 KT):0
Visibility: 10 mile(s):0
Sky conditions: clear
Temperature: 86.0 F (30.0 C)
Dew Point: 60.1 F (15.6 C)
Relative Humidity: 41%
Pressure (altimeter): 30.08 in. Hg (1018 hPa)
ob: KECG 262154Z 10005KT 10SM CLR 30/16 A3008 RMK AO2 SLP184 T03000156
cycle: 22

Station Type Date Time Source
KECG TAF 2019/06/26 18:24 UTC NOAA

TAF KECG 261720Z 2618/2718 06007KT P6SM SCT050
FM262300 VRB04KT P6SM BKN250

Example: see airport list